createdAt,value
2022-08-17T00:02:26.152Z,24.10
2022-08-17T00:04:55.476Z,24.04
2022-08-17T00:07:23.058Z,24.05
2022-08-17T00:09:50.356Z,24.07
2022-08-17T00:12:43.682Z,24.04
2022-08-17T00:15:08.346Z,24.04
2022-08-17T00:17:38.157Z,23.98
2022-08-17T00:20:06.440Z,24.00
2022-08-17T00:22:36.312Z,23.97
2022-08-17T00:25:12.992Z,23.98
2022-08-17T00:27:40.828Z,23.97
2022-08-17T00:30:11.246Z,23.93
2022-08-17T00:33:14.163Z,23.92
2022-08-17T00:35:30.602Z,23.87
2022-08-17T00:37:57.600Z,23.88
2022-08-17T00:40:24.908Z,23.87
2022-08-17T00:42:53.447Z,23.83
2022-08-17T00:45:20.944Z,23.80
2022-08-17T00:47:48.346Z,23.77
2022-08-17T00:50:18.847Z,23.79
2022-08-17T00:52:54.880Z,23.71
2022-08-17T00:55:24.331Z,23.75
2022-08-17T00:58:00.126Z,23.70
2022-08-17T01:00:39.323Z,23.70
2022-08-17T01:03:15.130Z,23.67
2022-08-17T01:05:42.805Z,23.66
2022-08-17T01:08:16.709Z,23.64
2022-08-17T01:11:00.582Z,23.60
2022-08-17T01:13:41.230Z,23.58
2022-08-17T01:16:28.730Z,23.57
2022-08-17T01:19:05.057Z,23.56
2022-08-17T01:21:53.054Z,23.52
2022-08-17T01:24:20.093Z,23.52
2022-08-17T01:26:48.174Z,23.52
2022-08-17T01:29:16.545Z,23.53
2022-08-17T01:31:48.617Z,23.49
2022-08-17T01:34:17.890Z,23.50
2022-08-17T01:36:48.633Z,23.49
2022-08-17T01:39:31.463Z,23.50
2022-08-17T01:42:58.886Z,23.48
2022-08-17T01:45:33.801Z,23.49
2022-08-17T01:48:01.217Z,23.46
2022-08-17T01:50:35.068Z,23.48
2022-08-17T01:53:16.929Z,23.43
2022-08-17T01:55:52.134Z,23.41
2022-08-17T01:58:21.022Z,23.41
2022-08-17T02:01:00.934Z,23.41
2022-08-17T02:03:30.410Z,23.39
2022-08-17T02:05:58.069Z,23.41
2022-08-17T02:08:37.182Z,23.36
2022-08-17T02:11:13.708Z,23.38
2022-08-17T02:13:40.753Z,23.35
2022-08-17T02:16:07.735Z,23.35
2022-08-17T02:18:34.718Z,23.31
2022-08-17T02:21:02.189Z,23.24
2022-08-17T02:23:35.985Z,23.19
2022-08-17T02:26:03.232Z,23.07
2022-08-17T02:28:30.786Z,23.00
2022-08-17T02:31:03.584Z,22.87
2022-08-17T02:33:42.730Z,22.80
2022-08-17T02:36:12.845Z,22.73
2022-08-17T02:38:41.089Z,22.65
2022-08-17T02:41:08.919Z,22.57
2022-08-17T02:43:36.689Z,22.51
2022-08-17T02:46:03.689Z,22.42
2022-08-17T02:48:32.051Z,22.36
2022-08-17T02:51:00.716Z,22.29
2022-08-17T02:53:33.668Z,22.22
2022-08-17T02:56:03.946Z,22.14
2022-08-17T02:58:35.458Z,22.04
2022-08-17T03:01:09.705Z,21.98
2022-08-17T03:03:38.162Z,21.89
2022-08-17T03:06:06.254Z,21.81
2022-08-17T03:08:33.840Z,21.72
2022-08-17T03:11:00.862Z,21.65
2022-08-17T03:13:27.816Z,21.61
2022-08-17T03:15:54.844Z,21.58
2022-08-17T03:18:25.380Z,21.54
2022-08-17T03:20:59.938Z,21.49
2022-08-17T03:23:29.728Z,21.44
2022-08-17T03:25:57.875Z,21.40
2022-08-17T03:28:26.072Z,21.43
2022-08-17T03:30:53.346Z,21.45
2022-08-17T03:33:20.789Z,21.36
2022-08-17T03:35:48.529Z,21.31
2022-08-17T03:38:17.393Z,21.26
2022-08-17T03:40:57.603Z,21.17
2022-08-17T03:43:29.663Z,21.12
2022-08-17T03:46:28.123Z,21.04
2022-08-17T03:49:19.500Z,21.02
2022-08-17T03:52:05.419Z,20.98
2022-08-17T03:54:50.754Z,21.00
2022-08-17T03:57:19.097Z,21.07
2022-08-17T03:59:46.319Z,21.07
2022-08-17T04:02:24.695Z,21.07
2022-08-17T04:04:52.274Z,21.08
2022-08-17T04:07:22.834Z,21.09
2022-08-17T04:09:49.848Z,21.04
2022-08-17T04:12:22.128Z,20.92
2022-08-17T04:14:53.245Z,20.76
2022-08-17T04:17:24.689Z,20.69
2022-08-17T04:19:51.893Z,20.22
2022-08-17T04:22:32.314Z,20.25
2022-08-17T04:25:05.706Z,19.98
2022-08-17T04:27:32.724Z,19.86
2022-08-17T04:30:00.244Z,19.77
2022-08-17T04:33:03.471Z,19.68
2022-08-17T04:35:19.911Z,19.61
2022-08-17T04:37:47.398Z,19.64
2022-08-17T04:40:32.695Z,19.74
2022-08-17T04:43:16.466Z,19.73
2022-08-17T04:45:56.352Z,19.78
2022-08-17T04:48:35.466Z,19.78
2022-08-17T04:51:12.208Z,19.82
2022-08-17T04:53:54.096Z,19.88
2022-08-17T04:56:25.013Z,19.93
2022-08-17T04:58:55.028Z,19.97
2022-08-17T05:01:25.097Z,20.02
2022-08-17T05:03:56.156Z,20.08
2022-08-17T05:06:23.670Z,20.12
2022-08-17T05:08:50.754Z,20.17
2022-08-17T05:11:18.016Z,20.19
2022-08-17T05:13:45.149Z,20.22
2022-08-17T05:16:12.799Z,20.25
2022-08-17T05:18:39.823Z,20.23
2022-08-17T05:21:07.641Z,20.25
2022-08-17T05:23:42.553Z,20.29
2022-08-17T05:26:26.882Z,20.35
2022-08-17T05:28:59.634Z,20.35
2022-08-17T05:31:29.274Z,20.33
2022-08-17T05:33:56.440Z,20.32
2022-08-17T05:36:42.299Z,20.31
2022-08-17T05:39:16.341Z,20.36
2022-08-17T05:41:47.078Z,20.39
2022-08-17T05:44:14.769Z,20.46
2022-08-17T05:46:47.217Z,20.49
2022-08-17T05:49:17.106Z,20.48
2022-08-17T05:52:23.457Z,20.62
2022-08-17T05:55:18.034Z,20.68
2022-08-17T05:58:15.568Z,20.76
2022-08-17T06:01:47.681Z,20.83
2022-08-17T06:04:42.928Z,20.89
2022-08-17T06:07:40.356Z,20.97
2022-08-17T06:10:35.133Z,21.00
2022-08-17T06:13:14.369Z,21.02
2022-08-17T06:16:32.930Z,21.06
2022-08-17T06:19:11.119Z,21.07
2022-08-17T06:21:43.527Z,21.10
2022-08-17T06:24:23.865Z,21.11
2022-08-17T06:26:52.220Z,21.16
2022-08-17T06:29:41.733Z,21.22
2022-08-17T06:32:12.676Z,21.33
2022-08-17T06:34:41.948Z,21.43
2022-08-17T06:37:21.160Z,21.56
2022-08-17T06:39:58.957Z,21.68
2022-08-17T06:43:07.996Z,21.81
2022-08-17T06:45:43.318Z,21.96
2022-08-17T06:48:18.776Z,22.10
2022-08-17T06:50:59.975Z,22.22
2022-08-17T06:53:39.976Z,22.29
2022-08-17T06:56:09.877Z,22.35
2022-08-17T06:58:40.442Z,22.40
2022-08-17T07:01:16.849Z,22.45
2022-08-17T07:04:21.418Z,22.47
2022-08-17T07:07:27.123Z,22.49
2022-08-17T07:09:58.373Z,22.51
2022-08-17T07:12:38.334Z,22.52
2022-08-17T07:15:13.068Z,22.56
2022-08-17T07:17:48.093Z,22.54
2022-08-17T07:20:21.119Z,22.48
2022-08-17T07:23:07.268Z,22.42
2022-08-17T07:25:35.048Z,22.35
2022-08-17T07:28:07.670Z,22.23
2022-08-17T07:30:54.973Z,22.25
2022-08-17T07:33:28.726Z,22.21
2022-08-17T07:35:58.041Z,22.21
2022-08-17T07:38:31.495Z,22.18
2022-08-17T07:41:01.920Z,22.09
2022-08-17T07:43:31.607Z,22.09
2022-08-17T07:46:23.844Z,22.03
2022-08-17T07:48:58.194Z,22.03
2022-08-17T07:51:33.803Z,22.07
2022-08-17T07:54:23.591Z,22.09
2022-08-17T07:57:14.646Z,22.12
2022-08-17T08:00:04.208Z,22.14
2022-08-17T08:02:45.479Z,22.21
2022-08-17T08:05:46.695Z,22.30
2022-08-17T08:08:33.576Z,22.41
2022-08-17T08:11:12.156Z,22.52
2022-08-17T08:13:43.571Z,22.62
2022-08-17T08:16:29.470Z,22.69
2022-08-17T08:19:02.157Z,22.78
2022-08-17T08:21:51.355Z,22.88
2022-08-17T08:24:40.072Z,23.00
2022-08-17T08:27:52.287Z,23.11
2022-08-17T08:30:21.913Z,23.19
2022-08-17T08:32:57.313Z,23.27
2022-08-17T08:35:53.445Z,23.32
2022-08-17T08:38:44.278Z,23.38
2022-08-17T08:41:20.028Z,23.43
2022-08-17T08:44:00.760Z,23.48
2022-08-17T08:46:35.939Z,23.54
2022-08-17T08:50:02.750Z,23.63
2022-08-17T08:52:51.652Z,23.68
2022-08-17T08:55:53.620Z,23.64
2022-08-17T08:58:52.190Z,23.68
2022-08-17T09:01:39.245Z,23.73
2022-08-17T09:05:10.714Z,23.70
2022-08-17T09:07:36.667Z,23.62
2022-08-17T09:10:22.090Z,23.69
2022-08-17T09:13:54.362Z,23.67
2022-08-17T09:16:40.364Z,23.70
2022-08-17T09:19:43.633Z,23.67
2022-08-17T09:22:39.262Z,23.64
2022-08-17T09:25:20.388Z,23.63
2022-08-17T09:28:00.764Z,23.62
2022-08-17T09:30:55.429Z,23.59
2022-08-17T09:33:27.580Z,23.59
2022-08-17T09:36:02.848Z,23.52
2022-08-17T09:39:17.082Z,23.43
2022-08-17T09:41:55.739Z,23.42
2022-08-17T09:44:58.619Z,23.43
2022-08-17T09:47:46.819Z,23.44
2022-08-17T09:50:55.363Z,23.47
2022-08-17T09:53:11.903Z,23.50
2022-08-17T09:56:18.325Z,23.60
2022-08-17T09:59:20.080Z,23.70
2022-08-17T10:02:15.205Z,23.79
2022-08-17T10:05:10.243Z,23.91
2022-08-17T10:08:09.206Z,23.96
2022-08-17T10:10:59.529Z,23.94
2022-08-17T10:13:53.764Z,23.93
2022-08-17T10:16:30.933Z,23.94
2022-08-17T10:19:31.292Z,23.98
2022-08-17T10:22:35.309Z,23.96
2022-08-17T10:25:37.619Z,24.00
2022-08-17T10:28:20.990Z,23.98
2022-08-17T10:31:16.787Z,24.04
2022-08-17T10:34:00.989Z,24.12
2022-08-17T10:37:35.366Z,24.17
2022-08-17T10:40:45.638Z,24.17
2022-08-17T10:43:36.724Z,24.08
2022-08-17T10:46:30.574Z,24.04
2022-08-17T10:49:17.375Z,24.00
2022-08-17T10:51:47.930Z,23.95
2022-08-17T10:54:45.700Z,23.83
2022-08-17T10:57:45.174Z,23.73
2022-08-17T11:00:40.745Z,23.66
2022-08-17T11:03:22.303Z,23.60
2022-08-17T11:06:25.649Z,23.54
2022-08-17T11:09:37.934Z,23.42
2022-08-17T11:12:45.828Z,23.34
2022-08-17T11:16:08.815Z,23.28
2022-08-17T11:19:09.906Z,23.32
2022-08-17T11:22:39.172Z,23.40
2022-08-17T11:25:19.912Z,23.43
2022-08-17T11:27:53.606Z,23.51
2022-08-17T11:30:50.916Z,23.56
2022-08-17T11:33:29.874Z,23.61
2022-08-17T11:36:04.055Z,23.67
2022-08-17T11:39:19.159Z,23.75
2022-08-17T11:42:25.484Z,23.82
2022-08-17T11:45:19.427Z,23.88
2022-08-17T11:48:38.110Z,23.93
2022-08-17T11:51:35.673Z,24.01
2022-08-17T11:54:33.315Z,24.11
2022-08-17T11:57:27.026Z,24.18
2022-08-17T12:00:10.829Z,24.26
2022-08-17T12:02:48.229Z,24.37
2022-08-17T12:05:21.088Z,24.52
2022-08-17T12:07:54.694Z,24.72
2022-08-17T12:10:31.819Z,24.79
2022-08-17T12:13:06.724Z,24.94
2022-08-17T12:15:49.532Z,25.09
2022-08-17T12:18:25.175Z,25.08
2022-08-17T12:21:21.360Z,25.19
2022-08-17T12:24:13.428Z,25.23
2022-08-17T12:26:43.933Z,25.32
2022-08-17T12:29:18.155Z,25.42
2022-08-17T12:32:05.791Z,25.44
2022-08-17T12:34:42.682Z,25.41
2022-08-17T12:37:24.717Z,25.37
2022-08-17T12:40:01.005Z,25.33
2022-08-17T12:42:37.499Z,25.34
2022-08-17T12:45:29.767Z,25.40
2022-08-17T12:48:11.292Z,25.44
2022-08-17T12:50:47.382Z,25.42
2022-08-17T12:53:40.218Z,25.42
2022-08-17T12:56:12.176Z,25.30
2022-08-17T12:58:53.472Z,25.29
2022-08-17T13:01:23.407Z,25.25
2022-08-17T13:03:53.873Z,25.23
2022-08-17T13:06:36.875Z,25.17
2022-08-17T13:09:19.583Z,25.06
2022-08-17T13:12:00.871Z,25.01
2022-08-17T13:14:28.652Z,25.06
2022-08-17T13:16:59.830Z,25.06
2022-08-17T13:19:40.007Z,25.09
2022-08-17T13:22:12.726Z,25.21
2022-08-17T13:25:05.281Z,25.34
2022-08-17T13:27:33.897Z,25.49
2022-08-17T13:30:12.104Z,25.56
2022-08-17T13:32:48.580Z,25.62
2022-08-17T13:35:50.167Z,25.74
2022-08-17T13:38:47.240Z,25.94
2022-08-17T13:41:37.656Z,26.08
2022-08-17T13:44:34.537Z,26.23
2022-08-17T13:47:05.722Z,26.25
2022-08-17T13:49:48.310Z,26.35
2022-08-17T13:52:52.366Z,26.56
2022-08-17T13:55:22.447Z,26.57
2022-08-17T13:58:03.654Z,26.80
2022-08-17T14:00:36.686Z,26.88
2022-08-17T14:03:05.557Z,27.02
2022-08-17T14:05:33.774Z,27.12
2022-08-17T14:08:06.774Z,27.26
2022-08-17T14:10:36.316Z,27.22
2022-08-17T14:13:05.151Z,27.35
2022-08-17T14:15:54.928Z,27.40
2022-08-17T14:18:31.222Z,27.47
2022-08-17T14:21:08.249Z,27.66
2022-08-17T14:23:36.968Z,27.79
2022-08-17T14:26:04.329Z,27.79
2022-08-17T14:28:31.988Z,27.92
2022-08-17T14:31:01.143Z,27.86
2022-08-17T14:33:29.373Z,28.06
2022-08-17T14:35:57.570Z,28.11
2022-08-17T14:38:24.822Z,28.23
2022-08-17T14:40:52.142Z,28.25
2022-08-17T14:43:20.343Z,28.25
2022-08-17T14:45:47.449Z,28.29
2022-08-17T14:48:14.443Z,28.24
2022-08-17T14:50:43.717Z,28.10
2022-08-17T14:53:14.879Z,28.07
2022-08-17T14:55:42.749Z,28.13
2022-08-17T14:58:10.383Z,28.36
2022-08-17T15:00:39.327Z,28.57
2022-08-17T15:03:06.348Z,28.58
2022-08-17T15:05:37.870Z,28.69
2022-08-17T15:08:06.201Z,28.70
2022-08-17T15:10:33.309Z,28.87
2022-08-17T15:13:00.657Z,28.83
2022-08-17T15:15:28.605Z,28.82
2022-08-17T15:17:55.904Z,28.77
2022-08-17T15:20:28.005Z,28.64
2022-08-17T15:22:56.025Z,28.82
2022-08-17T15:25:27.459Z,28.98
2022-08-17T15:27:55.756Z,29.07
2022-08-17T15:30:23.495Z,29.13
2022-08-17T15:32:55.275Z,29.05
2022-08-17T15:35:31.389Z,29.04
2022-08-17T15:38:08.359Z,29.18
2022-08-17T15:40:48.647Z,29.19
2022-08-17T15:43:27.247Z,29.24
2022-08-17T15:46:01.730Z,29.12
2022-08-17T15:48:42.872Z,29.17
2022-08-17T15:51:17.628Z,29.18
2022-08-17T15:53:52.626Z,29.17
2022-08-17T15:56:20.566Z,29.16
2022-08-17T15:58:48.754Z,29.15
2022-08-17T16:03:01.040Z,29.17
2022-08-17T16:04:26.871Z,29.07
2022-08-17T16:06:59.221Z,29.09
2022-08-17T16:09:26.811Z,29.08
2022-08-17T16:11:55.670Z,29.02
2022-08-17T16:14:34.066Z,28.96
2022-08-17T16:17:04.435Z,28.95
2022-08-17T16:19:33.418Z,28.92
2022-08-17T16:22:00.733Z,28.93
2022-08-17T16:24:28.261Z,28.86
2022-08-17T16:26:55.491Z,28.75
2022-08-17T16:29:23.037Z,28.75
2022-08-17T16:31:50.789Z,28.65
2022-08-17T16:34:18.930Z,28.54
2022-08-17T16:36:54.675Z,28.61
2022-08-17T16:39:25.532Z,28.64
2022-08-17T16:41:52.592Z,28.61
2022-08-17T16:44:21.806Z,28.65
2022-08-17T16:46:50.291Z,28.61
2022-08-17T16:49:35.281Z,28.62
2022-08-17T16:52:09.558Z,28.62
2022-08-17T16:54:41.772Z,28.62
2022-08-17T16:57:10.080Z,28.59
2022-08-17T16:59:42.483Z,28.48
2022-08-17T17:02:25.963Z,28.40
2022-08-17T17:05:22.081Z,28.28
2022-08-17T17:08:04.878Z,28.23
2022-08-17T17:10:42.432Z,28.19
2022-08-17T17:13:26.750Z,28.11
2022-08-17T17:16:21.485Z,28.00
2022-08-17T17:19:34.475Z,27.91
2022-08-17T17:22:21.740Z,27.86
2022-08-17T17:25:39.593Z,27.84
2022-08-17T17:28:53.773Z,27.79
2022-08-17T17:31:25.523Z,27.74
2022-08-17T17:34:00.325Z,27.69
2022-08-17T17:36:38.238Z,27.62
2022-08-17T17:39:17.916Z,27.55
2022-08-17T17:41:58.365Z,27.52
2022-08-17T17:44:34.435Z,27.47
2022-08-17T17:47:04.623Z,27.41
2022-08-17T17:49:39.025Z,27.32
2022-08-17T17:52:36.274Z,27.27
2022-08-17T17:55:30.689Z,27.23
2022-08-17T17:58:19.558Z,27.17
2022-08-17T18:01:06.205Z,27.11
2022-08-17T18:04:17.631Z,27.04
2022-08-17T18:07:42.296Z,26.94
2022-08-17T18:10:32.855Z,26.93
2022-08-17T18:13:26.758Z,26.86
2022-08-17T18:15:56.164Z,26.85
2022-08-17T18:18:38.552Z,26.78
2022-08-17T18:21:16.438Z,26.74
2022-08-17T18:23:57.821Z,26.70
2022-08-17T18:26:50.372Z,26.69
2022-08-17T18:29:27.953Z,26.68
2022-08-17T18:32:22.084Z,26.62
2022-08-17T18:35:27.586Z,26.59
2022-08-17T18:38:33.812Z,26.53
2022-08-17T18:41:16.298Z,26.49
2022-08-17T18:43:52.933Z,26.43
2022-08-17T18:46:28.876Z,26.41
2022-08-17T18:49:02.317Z,26.41
2022-08-17T18:51:42.337Z,26.39
2022-08-17T18:54:23.892Z,26.37
2022-08-17T18:56:57.763Z,26.33
2022-08-17T18:59:49.672Z,26.27
2022-08-17T19:02:38.653Z,26.21
2022-08-17T19:05:26.478Z,26.15
2022-08-17T19:07:54.791Z,26.10
2022-08-17T19:10:46.821Z,26.06
2022-08-17T19:13:38.796Z,26.05
2022-08-17T19:16:35.426Z,26.06
2022-08-17T19:19:28.660Z,26.01
2022-08-17T19:22:28.467Z,26.01
2022-08-17T19:25:12.072Z,25.96
2022-08-17T19:28:03.648Z,25.97
2022-08-17T19:30:31.222Z,25.98
2022-08-17T19:32:58.450Z,25.97
2022-08-17T19:35:57.369Z,25.96
2022-08-17T19:38:47.611Z,25.95
2022-08-17T19:41:32.536Z,25.91
2022-08-17T19:44:15.248Z,25.89
2022-08-17T19:47:08.818Z,25.87
2022-08-17T19:50:11.671Z,25.80
2022-08-17T19:53:41.637Z,25.75
2022-08-17T19:56:25.846Z,25.67
2022-08-17T19:59:03.426Z,25.61
2022-08-17T20:01:58.999Z,25.56
2022-08-17T20:04:41.040Z,25.51
2022-08-17T20:07:19.174Z,25.46
2022-08-17T20:10:06.497Z,25.42
2022-08-17T20:12:40.175Z,25.37
2022-08-17T20:15:11.292Z,25.33
2022-08-17T20:17:42.895Z,25.30
2022-08-17T20:20:26.111Z,25.24
2022-08-17T20:23:23.783Z,25.18
2022-08-17T20:26:43.327Z,25.12
2022-08-17T20:29:37.232Z,25.07
2022-08-17T20:32:28.413Z,24.98
2022-08-17T20:35:23.959Z,24.94
2022-08-17T20:38:06.213Z,24.90
2022-08-17T20:41:01.265Z,24.88
2022-08-17T20:43:34.199Z,24.85
2022-08-17T20:46:19.042Z,24.82
2022-08-17T20:48:51.870Z,24.79
2022-08-17T20:51:32.231Z,24.77
2022-08-17T20:54:07.684Z,24.72
2022-08-17T20:56:43.769Z,24.68
2022-08-17T20:59:25.759Z,24.64
2022-08-17T21:02:18.604Z,24.60
2022-08-17T21:04:54.393Z,24.53
2022-08-17T21:07:43.117Z,24.47
2022-08-17T21:10:23.672Z,24.41
2022-08-17T21:13:23.804Z,24.36
2022-08-17T21:16:25.676Z,24.32
2022-08-17T21:19:22.163Z,24.28
2022-08-17T21:22:00.623Z,24.25
2022-08-17T21:25:03.266Z,24.23
2022-08-17T21:28:02.534Z,24.20
2022-08-17T21:30:29.346Z,24.18
2022-08-17T21:33:18.532Z,24.15
2022-08-17T21:36:13.442Z,24.12
2022-08-17T21:38:55.693Z,24.10
2022-08-17T21:41:44.085Z,24.08
2022-08-17T21:44:34.976Z,24.06
2022-08-17T21:47:28.343Z,24.03
2022-08-17T21:50:13.055Z,24.03
2022-08-17T21:52:40.484Z,24.00
2022-08-17T21:55:18.043Z,23.96
2022-08-17T21:57:53.041Z,23.86
2022-08-17T22:00:36.734Z,23.77
2022-08-17T22:03:06.726Z,23.73
2022-08-17T22:05:39.367Z,23.67
2022-08-17T22:08:19.833Z,23.62
2022-08-17T22:10:50.991Z,23.60
2022-08-17T22:13:17.958Z,23.59
2022-08-17T22:16:27.887Z,23.62
2022-08-17T22:18:54.098Z,23.63
2022-08-17T22:21:22.530Z,23.67
2022-08-17T22:24:21.339Z,23.65
2022-08-17T22:27:11.540Z,23.64
2022-08-17T22:29:59.129Z,23.63
2022-08-17T22:32:44.517Z,23.65
2022-08-17T22:35:42.726Z,23.67
2022-08-17T22:38:18.868Z,23.65
2022-08-17T22:41:33.964Z,23.65
2022-08-17T22:44:41.201Z,23.69
2022-08-17T22:47:32.302Z,23.71
2022-08-17T22:50:02.386Z,23.72
2022-08-17T22:53:02.345Z,23.60
2022-08-17T22:55:52.353Z,23.62
2022-08-17T22:58:42.489Z,23.34
2022-08-17T23:01:29.624Z,23.43
2022-08-17T23:04:05.797Z,23.43
2022-08-17T23:06:35.874Z,23.40
2022-08-17T23:09:05.756Z,23.39
2022-08-17T23:11:50.507Z,23.43
2022-08-17T23:14:20.540Z,23.42
2022-08-17T23:16:50.251Z,23.34
2022-08-17T23:19:21.617Z,23.25
2022-08-17T23:21:52.549Z,23.24
2022-08-17T23:24:45.444Z,23.20
2022-08-17T23:27:12.662Z,23.17
2022-08-17T23:29:41.917Z,23.15
2022-08-17T23:32:14.552Z,23.17
2022-08-17T23:34:44.017Z,23.19
2022-08-17T23:37:13.657Z,23.15
2022-08-17T23:39:40.749Z,23.07
2022-08-17T23:42:11.039Z,23.00
2022-08-17T23:44:39.835Z,23.02
2022-08-17T23:47:08.012Z,23.01
2022-08-17T23:49:36.168Z,22.98
2022-08-17T23:52:07.687Z,22.93
2022-08-17T23:54:43.715Z,22.94
2022-08-17T23:57:15.640Z,22.85
2022-08-17T23:59:43.905Z,22.83
